createdAt,value
2022-12-16T00:01:31.154Z,27.60
2022-12-16T00:04:02.373Z,27.93
2022-12-16T00:06:36.456Z,27.52
2022-12-16T00:09:07.421Z,27.35
2022-12-16T00:11:39.470Z,27.39
2022-12-16T00:14:10.237Z,27.28
2022-12-16T00:16:41.064Z,27.60
2022-12-16T00:19:12.131Z,28.34
2022-12-16T00:21:43.244Z,27.71
2022-12-16T00:24:14.275Z,28.01
2022-12-16T00:26:45.233Z,27.54
2022-12-16T00:29:16.027Z,27.04
2022-12-16T00:31:50.018Z,28.59
2022-12-16T00:34:22.586Z,29.03
2022-12-16T00:36:53.810Z,29.09
2022-12-16T00:39:25.014Z,27.97
2022-12-16T00:41:56.078Z,28.15
2022-12-16T00:44:26.964Z,28.90
2022-12-16T00:46:57.828Z,28.60
2022-12-16T00:49:29.066Z,28.93
2022-12-16T00:51:59.946Z,28.98
2022-12-16T00:54:30.876Z,28.45
2022-12-16T00:57:01.941Z,27.84
2022-12-16T00:59:32.719Z,27.46
2022-12-16T01:02:03.714Z,27.67
2022-12-16T01:04:34.813Z,27.93
2022-12-16T01:07:05.752Z,27.53
2022-12-16T01:09:36.667Z,27.68
2022-12-16T01:12:07.924Z,27.87
2022-12-16T01:14:38.332Z,27.66
2022-12-16T01:17:09.272Z,27.51
2022-12-16T01:19:40.140Z,27.99
2022-12-16T01:22:10.917Z,28.05
2022-12-16T01:24:41.727Z,28.39
2022-12-16T01:27:13.395Z,29.66
2022-12-16T01:29:45.042Z,29.67
2022-12-16T01:32:17.498Z,29.00
2022-12-16T01:34:56.292Z,30.16
2022-12-16T01:37:28.240Z,30.48
2022-12-16T01:39:58.537Z,30.42
2022-12-16T01:42:34.917Z,30.58
2022-12-16T01:45:28.357Z,30.38
2022-12-16T01:48:03.593Z,29.83
2022-12-16T01:50:35.017Z,29.57
2022-12-16T01:53:05.399Z,28.82
2022-12-16T01:55:45.712Z,28.64
2022-12-16T01:58:28.431Z,28.98
2022-12-16T02:00:59.707Z,28.97
2022-12-16T02:03:34.861Z,29.47
2022-12-16T02:06:08.534Z,28.93
2022-12-16T02:08:39.404Z,28.97
2022-12-16T02:14:34.015Z,28.76
2022-12-16T02:17:22.951Z,29.29
2022-12-16T02:20:38.006Z,28.82
2022-12-16T02:23:23.954Z,28.69
2022-12-16T02:26:13.077Z,28.53
2022-12-16T02:29:05.690Z,28.81
2022-12-16T02:31:53.107Z,28.79
2022-12-16T02:34:31.115Z,28.87
2022-12-16T02:37:13.862Z,28.81
2022-12-16T02:40:18.568Z,28.62
2022-12-16T02:42:57.816Z,28.46
2022-12-16T02:48:18.859Z,28.25
2022-12-16T02:50:53.899Z,28.50
2022-12-16T02:53:25.602Z,28.83
2022-12-16T02:56:20.935Z,28.51
2022-12-16T02:59:26.256Z,28.65
2022-12-16T03:02:35.773Z,29.08
2022-12-16T03:05:19.961Z,28.85
2022-12-16T03:07:52.400Z,28.93
2022-12-16T03:10:27.004Z,29.09
2022-12-16T03:12:59.049Z,29.37
2022-12-16T03:15:33.716Z,29.24
2022-12-16T03:20:57.189Z,29.07
2022-12-16T03:23:39.303Z,28.71
2022-12-16T03:26:15.755Z,28.93
2022-12-16T03:28:59.816Z,28.38
2022-12-16T03:32:04.703Z,28.47
2022-12-16T03:37:48.809Z,27.59
2022-12-16T03:40:20.156Z,27.43
2022-12-16T03:42:51.745Z,28.02
2022-12-16T03:45:27.190Z,27.77
2022-12-16T03:48:00.961Z,28.09
2022-12-16T03:53:23.505Z,27.85
2022-12-16T03:55:57.841Z,27.53
2022-12-16T03:58:28.618Z,28.26
2022-12-16T04:00:59.761Z,27.76
2022-12-16T04:03:30.988Z,28.19
2022-12-16T04:06:02.178Z,28.26
2022-12-16T04:11:37.992Z,27.68
2022-12-16T04:14:29.039Z,27.28
2022-12-16T04:17:38.137Z,27.08
2022-12-16T04:20:52.404Z,26.98
2022-12-16T04:23:46.080Z,27.04
2022-12-16T04:26:29.218Z,27.04
2022-12-16T04:28:59.933Z,26.92
2022-12-16T04:31:31.007Z,26.63
2022-12-16T04:34:20.068Z,26.57
2022-12-16T04:37:08.883Z,26.36
2022-12-16T04:39:58.193Z,26.42
2022-12-16T04:45:53.591Z,26.35
2022-12-16T04:48:42.286Z,25.89
2022-12-16T04:51:31.271Z,25.51
2022-12-16T04:54:19.980Z,25.79
2022-12-16T04:57:08.943Z,25.99
2022-12-16T05:00:01.012Z,25.72
2022-12-16T05:02:51.398Z,25.63
2022-12-16T05:05:40.493Z,25.46
2022-12-16T05:08:29.564Z,24.94
2022-12-16T05:11:26.311Z,25.75
2022-12-16T05:14:15.726Z,25.40
2022-12-16T05:17:05.152Z,25.69
2022-12-16T05:19:54.241Z,25.50
2022-12-16T05:22:43.113Z,25.57
2022-12-16T05:25:31.631Z,25.24
2022-12-16T05:28:20.526Z,25.41
2022-12-16T05:34:14.805Z,24.48
2022-12-16T05:37:03.897Z,24.47
2022-12-16T05:39:52.769Z,24.40
2022-12-16T05:42:42.203Z,24.48
2022-12-16T05:45:31.080Z,24.58
2022-12-16T05:48:20.123Z,24.52
2022-12-16T05:51:09.223Z,24.14
2022-12-16T05:53:58.159Z,24.11
2022-12-16T05:56:47.147Z,23.97
2022-12-16T05:59:36.342Z,23.84
2022-12-16T06:02:25.848Z,23.87
2022-12-16T06:05:15.116Z,24.10
2022-12-16T06:08:11.604Z,23.93
2022-12-16T06:11:00.777Z,23.81
2022-12-16T06:13:50.064Z,23.58
2022-12-16T06:16:39.179Z,23.70
2022-12-16T06:19:27.820Z,23.49
2022-12-16T06:22:16.939Z,23.26
2022-12-16T06:25:06.198Z,23.37
2022-12-16T06:27:55.212Z,23.25
2022-12-16T06:30:44.385Z,23.48
2022-12-16T06:33:33.917Z,23.56
2022-12-16T06:36:23.151Z,23.57
2022-12-16T06:39:12.015Z,23.34
2022-12-16T06:42:01.431Z,23.34
2022-12-16T06:44:51.158Z,23.08
2022-12-16T06:47:40.335Z,23.13
2022-12-16T06:50:29.446Z,23.20
2022-12-16T06:53:18.295Z,23.19
2022-12-16T06:56:07.327Z,23.13
2022-12-16T06:58:56.390Z,22.83
2022-12-16T07:01:45.529Z,22.79
2022-12-16T07:04:34.960Z,22.83
2022-12-16T07:07:23.941Z,22.91
2022-12-16T07:10:12.777Z,22.83
2022-12-16T07:13:01.807Z,22.90
2022-12-16T07:15:50.585Z,22.79
2022-12-16T07:18:39.770Z,22.55
2022-12-16T07:21:28.731Z,22.73
2022-12-16T07:24:17.593Z,22.58
2022-12-16T07:27:06.741Z,22.72
2022-12-16T07:29:55.640Z,22.61
2022-12-16T07:32:44.480Z,22.63
2022-12-16T07:35:34.104Z,22.53
2022-12-16T07:38:23.084Z,22.45
2022-12-16T07:41:11.744Z,22.29
2022-12-16T07:44:00.860Z,22.39
2022-12-16T07:46:50.546Z,22.30
2022-12-16T07:49:39.955Z,22.09
2022-12-16T07:52:29.244Z,22.01
2022-12-16T07:55:17.906Z,22.15
2022-12-16T07:58:11.347Z,21.89
2022-12-16T08:01:02.750Z,21.85
2022-12-16T08:03:55.870Z,21.81
2022-12-16T08:06:44.689Z,21.82
2022-12-16T08:09:33.495Z,21.84
2022-12-16T08:12:22.456Z,21.60
2022-12-16T08:15:11.306Z,21.85
2022-12-16T08:18:08.677Z,21.77
2022-12-16T08:20:58.119Z,21.73
2022-12-16T08:23:47.099Z,21.73
2022-12-16T08:26:35.815Z,21.53
2022-12-16T08:29:43.785Z,21.50
2022-12-16T08:32:34.451Z,21.48
2022-12-16T08:35:23.701Z,21.43
2022-12-16T08:38:18.707Z,21.35
2022-12-16T08:41:07.594Z,21.29
2022-12-16T08:43:57.160Z,21.10
2022-12-16T08:46:46.125Z,21.00
2022-12-16T08:49:35.622Z,20.98
2022-12-16T08:52:24.371Z,21.19
2022-12-16T08:55:13.206Z,21.11
2022-12-16T08:58:02.278Z,21.10
2022-12-16T09:00:51.220Z,21.15
2022-12-16T09:03:40.306Z,21.14
2022-12-16T09:06:29.175Z,21.52
2022-12-16T09:09:18.045Z,21.58
2022-12-16T09:12:06.795Z,21.50
2022-12-16T09:14:56.155Z,21.71
2022-12-16T09:17:45.351Z,21.51
2022-12-16T09:20:34.875Z,21.31
2022-12-16T09:23:24.719Z,21.40
2022-12-16T09:26:17.490Z,21.35
2022-12-16T09:29:06.893Z,21.24
2022-12-16T09:31:55.711Z,21.30
2022-12-16T09:34:44.786Z,21.32
2022-12-16T09:37:33.910Z,21.26
2022-12-16T09:40:23.718Z,21.29
2022-12-16T09:43:21.072Z,21.16
2022-12-16T09:46:19.733Z,21.32
2022-12-16T09:49:34.792Z,21.10
2022-12-16T09:52:26.782Z,21.23
2022-12-16T09:55:15.960Z,21.26
2022-12-16T09:58:05.639Z,21.17
2022-12-16T10:00:55.630Z,21.18
2022-12-16T10:03:56.715Z,21.27
2022-12-16T10:07:18.992Z,21.01
2022-12-16T10:10:37.178Z,21.03
2022-12-16T10:13:55.523Z,21.06
2022-12-16T10:16:53.752Z,20.92
2022-12-16T10:20:08.715Z,21.09
2022-12-16T10:23:16.753Z,21.25
2022-12-16T10:26:33.414Z,21.04
2022-12-16T10:29:36.421Z,20.71
2022-12-16T10:32:43.932Z,20.64
2022-12-16T10:36:08.518Z,20.68
2022-12-16T10:39:11.394Z,20.68
2022-12-16T10:42:06.811Z,20.67
2022-12-16T10:45:14.993Z,20.84
2022-12-16T10:48:04.451Z,20.97
2022-12-16T10:50:53.526Z,20.92
2022-12-16T10:53:48.848Z,20.94
2022-12-16T10:57:21.896Z,20.97
2022-12-16T11:00:10.793Z,21.10
2022-12-16T11:02:59.847Z,21.08
2022-12-16T11:06:13.145Z,21.01
2022-12-16T11:09:02.293Z,20.93
2022-12-16T11:11:51.675Z,20.93
2022-12-16T11:15:12.409Z,20.82
2022-12-16T11:17:59.036Z,20.69
2022-12-16T11:20:48.307Z,20.60
2022-12-16T11:23:39.214Z,20.66
2022-12-16T11:26:36.051Z,20.71
2022-12-16T11:29:37.318Z,20.58
2022-12-16T11:32:35.367Z,20.50
2022-12-16T11:35:26.519Z,20.42
2022-12-16T11:38:16.106Z,20.52
2022-12-16T11:41:05.658Z,20.45
2022-12-16T11:43:56.260Z,20.51
2022-12-16T11:46:49.351Z,20.56
2022-12-16T11:49:45.525Z,20.60
2022-12-16T11:52:37.767Z,20.55
2022-12-16T11:56:05.953Z,20.44
2022-12-16T11:59:10.891Z,20.26
2022-12-16T12:02:06.275Z,20.31
2022-12-16T12:04:57.184Z,20.25
2022-12-16T12:07:55.665Z,20.26
2022-12-16T12:10:51.129Z,20.35
2022-12-16T12:14:20.703Z,20.50
2022-12-16T12:17:20.574Z,20.57
2022-12-16T12:20:24.567Z,20.32
2022-12-16T12:23:16.136Z,20.23
2022-12-16T12:26:23.139Z,20.31
2022-12-16T12:29:24.773Z,20.43
2022-12-16T12:32:36.379Z,20.25
2022-12-16T12:35:53.448Z,20.21
2022-12-16T12:39:18.279Z,20.21
2022-12-16T12:42:17.682Z,20.26
2022-12-16T12:45:22.000Z,20.24
2022-12-16T12:48:18.695Z,20.20
2022-12-16T12:51:18.230Z,20.20
2022-12-16T12:54:20.735Z,20.06
2022-12-16T12:57:12.758Z,20.06
2022-12-16T13:00:21.430Z,19.96
2022-12-16T13:03:22.694Z,20.17
2022-12-16T13:06:11.949Z,20.12
2022-12-16T13:09:16.760Z,19.97
2022-12-16T13:12:27.241Z,20.11
2022-12-16T13:15:26.706Z,20.13
2022-12-16T13:18:22.181Z,20.11
2022-12-16T13:21:13.096Z,20.06
2022-12-16T13:24:05.508Z,20.11
2022-12-16T13:26:56.363Z,20.19
2022-12-16T13:29:45.515Z,20.20
2022-12-16T13:32:42.983Z,20.22
2022-12-16T13:35:32.198Z,20.24
2022-12-16T13:38:23.257Z,20.14
2022-12-16T13:41:39.262Z,20.24
2022-12-16T13:44:28.710Z,20.13
2022-12-16T13:47:18.352Z,20.10
2022-12-16T13:50:10.437Z,20.20
2022-12-16T13:53:12.047Z,20.26
2022-12-16T13:56:13.102Z,19.99
2022-12-16T13:59:06.333Z,20.00
2022-12-16T14:02:08.381Z,19.96
2022-12-16T14:05:07.621Z,19.91
2022-12-16T14:07:59.734Z,19.99
2022-12-16T14:10:55.721Z,20.17
2022-12-16T14:13:51.113Z,20.06
2022-12-16T14:17:06.170Z,19.90
2022-12-16T14:20:07.191Z,19.94
2022-12-16T14:23:32.474Z,19.99
2022-12-16T14:26:23.937Z,19.96
2022-12-16T14:29:13.045Z,19.97
2022-12-16T14:32:03.649Z,19.91
2022-12-16T14:34:56.799Z,20.09
2022-12-16T14:37:56.786Z,20.08
2022-12-16T14:40:45.810Z,20.07
2022-12-16T14:43:41.678Z,20.06
2022-12-16T14:46:49.297Z,20.14
2022-12-16T14:49:41.892Z,20.15
2022-12-16T14:52:56.943Z,20.06
2022-12-16T14:55:54.268Z,20.11
2022-12-16T14:58:44.777Z,20.18
2022-12-16T15:01:43.915Z,20.15
2022-12-16T15:04:37.837Z,20.09
2022-12-16T15:07:31.380Z,20.10
2022-12-16T15:10:21.561Z,20.09
2022-12-16T15:13:10.624Z,20.14
2022-12-16T15:16:05.310Z,19.99
2022-12-16T15:19:03.237Z,20.00
2022-12-16T15:21:56.285Z,19.92
2022-12-16T15:24:45.946Z,19.92
2022-12-16T15:27:56.090Z,19.86
2022-12-16T15:31:06.616Z,19.92
2022-12-16T15:33:58.561Z,19.86
2022-12-16T15:36:52.263Z,19.74
2022-12-16T15:39:51.017Z,19.84
2022-12-16T15:42:49.419Z,19.74
2022-12-16T15:45:46.547Z,19.62
2022-12-16T15:48:42.950Z,19.57
2022-12-16T15:51:50.526Z,19.55
2022-12-16T15:54:43.504Z,19.55
2022-12-16T15:57:49.209Z,19.56
2022-12-16T16:00:47.330Z,19.60
2022-12-16T16:03:49.492Z,19.53
2022-12-16T16:06:48.761Z,19.55
2022-12-16T16:09:58.136Z,19.50
2022-12-16T16:13:07.039Z,19.60
2022-12-16T16:15:56.117Z,19.60
2022-12-16T16:18:45.092Z,19.55
2022-12-16T16:21:34.167Z,19.52
2022-12-16T16:24:23.430Z,19.56
2022-12-16T16:27:14.299Z,19.61
2022-12-16T16:30:03.062Z,19.71
2022-12-16T16:32:52.343Z,19.74
2022-12-16T16:35:41.394Z,19.83
2022-12-16T16:38:33.708Z,19.80
2022-12-16T16:41:22.774Z,19.82
2022-12-16T16:44:16.494Z,19.90
2022-12-16T16:47:08.481Z,19.87
2022-12-16T16:50:07.489Z,19.86
2022-12-16T16:52:56.411Z,19.97
2022-12-16T16:55:45.674Z,19.99
2022-12-16T16:58:40.863Z,19.93
2022-12-16T17:01:37.955Z,19.91
2022-12-16T17:04:27.741Z,19.93
2022-12-16T17:07:16.802Z,19.89
2022-12-16T17:10:06.090Z,19.85
2022-12-16T17:12:58.589Z,19.82
2022-12-16T17:15:54.452Z,19.72
2022-12-16T17:18:47.754Z,19.66
2022-12-16T17:21:39.664Z,19.58
2022-12-16T17:24:28.526Z,19.75
2022-12-16T17:27:17.248Z,19.75
2022-12-16T17:30:06.658Z,19.71
2022-12-16T17:32:55.830Z,19.71
2022-12-16T17:35:44.458Z,19.77
2022-12-16T17:38:33.591Z,19.78
2022-12-16T17:41:22.488Z,19.78
2022-12-16T17:44:13.416Z,19.85
2022-12-16T17:47:02.293Z,19.92
2022-12-16T17:49:51.160Z,19.80
2022-12-16T17:52:40.166Z,19.79
2022-12-16T17:55:29.529Z,19.88
2022-12-16T17:58:18.985Z,20.01
2022-12-16T18:01:08.380Z,20.07
2022-12-16T18:03:57.332Z,19.92
2022-12-16T18:06:46.729Z,20.00
2022-12-16T18:09:35.625Z,19.97
2022-12-16T18:12:24.369Z,20.17
2022-12-16T18:15:13.245Z,20.14
2022-12-16T18:18:02.308Z,20.23
2022-12-16T18:20:51.074Z,20.27
2022-12-16T18:23:40.190Z,20.22
2022-12-16T18:26:30.436Z,20.19
2022-12-16T18:29:19.316Z,20.20
2022-12-16T18:32:09.054Z,20.23
2022-12-16T18:34:58.095Z,20.13
2022-12-16T18:37:47.020Z,20.20
2022-12-16T18:40:35.751Z,20.41
2022-12-16T18:43:24.561Z,20.18
2022-12-16T18:46:14.574Z,20.14
2022-12-16T18:49:03.829Z,20.28
2022-12-16T18:51:52.738Z,20.27
2022-12-16T18:54:41.789Z,20.47
2022-12-16T18:57:32.008Z,20.43
2022-12-16T19:00:24.785Z,20.51
2022-12-16T19:03:13.681Z,20.55
2022-12-16T19:06:02.686Z,20.51
2022-12-16T19:08:51.739Z,20.48
2022-12-16T19:11:40.452Z,20.38
2022-12-16T19:14:29.776Z,20.52
2022-12-16T19:17:18.531Z,20.49
2022-12-16T19:20:07.482Z,20.45
2022-12-16T19:22:56.424Z,20.42
2022-12-16T19:25:45.280Z,20.53
2022-12-16T19:28:36.583Z,20.44
2022-12-16T19:31:31.035Z,20.38
2022-12-16T19:34:21.731Z,20.43
2022-12-16T19:37:27.596Z,20.44
2022-12-16T19:40:16.783Z,20.53
2022-12-16T19:43:06.197Z,20.53
2022-12-16T19:45:56.372Z,20.54
2022-12-16T19:48:45.523Z,20.59
2022-12-16T19:51:34.607Z,20.50
2022-12-16T19:54:23.702Z,20.60
2022-12-16T19:57:12.627Z,20.76
2022-12-16T20:00:01.698Z,21.07
2022-12-16T20:03:00.728Z,21.17
2022-12-16T20:05:49.880Z,20.77
2022-12-16T20:08:38.618Z,20.81
2022-12-16T20:11:28.558Z,20.80
2022-12-16T20:14:17.582Z,20.86
2022-12-16T20:17:06.616Z,20.87
2022-12-16T20:19:58.634Z,20.67
2022-12-16T20:22:47.575Z,21.17
2022-12-16T20:25:36.463Z,21.10
2022-12-16T20:28:25.414Z,21.10
2022-12-16T20:31:14.191Z,21.21
2022-12-16T20:34:03.369Z,21.10
2022-12-16T20:37:12.216Z,21.31
2022-12-16T20:40:01.431Z,21.00
2022-12-16T20:42:51.427Z,21.21
2022-12-16T20:46:00.584Z,21.30
2022-12-16T20:48:49.676Z,21.55
2022-12-16T20:51:38.751Z,21.75
2022-12-16T20:54:32.938Z,21.89
2022-12-16T20:57:21.953Z,21.76
2022-12-16T21:00:11.084Z,21.62
2022-12-16T21:02:59.916Z,21.89
2022-12-16T21:05:49.434Z,22.01
2022-12-16T21:08:38.101Z,21.78
2022-12-16T21:11:26.950Z,21.90
2022-12-16T21:14:16.417Z,22.11
2022-12-16T21:17:05.374Z,22.07
2022-12-16T21:19:54.139Z,21.92
2022-12-16T21:22:45.243Z,21.78
2022-12-16T21:25:34.605Z,21.99
2022-12-16T21:28:23.706Z,21.82
2022-12-16T21:31:12.571Z,21.47
2022-12-16T21:34:01.553Z,21.56
2022-12-16T21:36:50.538Z,21.61
2022-12-16T21:39:40.724Z,21.70
2022-12-16T21:42:34.787Z,21.76
2022-12-16T21:45:25.324Z,21.54
2022-12-16T21:48:14.852Z,21.59
2022-12-16T21:51:03.666Z,21.64
2022-12-16T21:53:53.463Z,21.52
2022-12-16T21:56:42.484Z,21.43
2022-12-16T21:59:31.572Z,21.26
2022-12-16T22:02:20.487Z,21.11
2022-12-16T22:05:09.299Z,20.77
2022-12-16T22:07:58.083Z,21.05
2022-12-16T22:10:46.936Z,20.87
2022-12-16T22:13:36.404Z,21.07
2022-12-16T22:16:26.465Z,21.47
2022-12-16T22:19:15.339Z,21.70
2022-12-16T22:22:04.258Z,21.88
2022-12-16T22:25:01.498Z,21.80
2022-12-16T22:27:50.939Z,21.68
2022-12-16T22:30:40.954Z,21.72
2022-12-16T22:33:30.957Z,21.78
2022-12-16T22:36:24.386Z,21.57
2022-12-16T22:39:13.629Z,21.55
2022-12-16T22:42:02.781Z,22.03
2022-12-16T22:44:51.602Z,22.21
2022-12-16T22:47:40.834Z,22.52
2022-12-16T22:50:29.694Z,22.32
2022-12-16T22:53:18.645Z,22.56
2022-12-16T22:56:12.331Z,22.46
2022-12-16T22:59:01.478Z,22.32
2022-12-16T23:01:50.815Z,22.52
2022-12-16T23:04:41.128Z,22.76
2022-12-16T23:07:29.951Z,23.33
2022-12-16T23:10:18.711Z,23.11
2022-12-16T23:13:07.646Z,23.38
2022-12-16T23:15:56.696Z,22.75
2022-12-16T23:18:45.844Z,22.51
2022-12-16T23:21:37.222Z,22.65
2022-12-16T23:24:26.736Z,22.83
2022-12-16T23:27:16.002Z,22.52
2022-12-16T23:30:05.091Z,22.48
2022-12-16T23:32:58.616Z,22.58
2022-12-16T23:35:47.820Z,22.70
2022-12-16T23:38:36.992Z,22.77
2022-12-16T23:41:26.055Z,22.62
2022-12-16T23:44:14.875Z,22.59
2022-12-16T23:47:03.765Z,22.23
2022-12-16T23:49:52.751Z,22.20
2022-12-16T23:52:47.540Z,21.99
2022-12-16T23:55:36.636Z,22.41
2022-12-16T23:58:26.727Z,22.46
